LIRQ Airport Information

Runway Information
Runway 05 Length 5741 ft width 148 ft
Elevation 123 ft Threshold 492 ft Heading 48
Runway 23 Length 5741 ft Width 148 ft
Elevation 132 ft Threshold 2287 ft Heading 228
Airport Frequencies
Type APP Name APP Frequency 126.075 MHZ
Type ATIS Name ATIS Frequency 129.35 MHZ
Type TWR Name FIRENZE TW Frequency 118.3 MHZ
Airport Navaids
Type VOR-DME Name Peretola Frequency 112500 KHZ
Airport Weather Information & NOTAM
ADDS - METARS form results

(2314 UTC 18 August 2022)
Data provider http://aviationweather.gov/metar/data/
 
METAR text: LIRQ 182250Z 23006KT 170V320 9999 TSRA SCT030CB BKN045 21/21 Q1008
Conditions at: LIRQ (FIRENZE/PERETOLA, IT) observed 2250 UTC 18 August 2022
Temperature: 21.0°C (70°F)
Dewpoint: 21.0°C (70°F) [RH = 100%]
Pressure (altimeter): 29.76 inches Hg (1008.0 mb)
Winds: from the SW (230 degrees) at 7 MPH (6 knots; 3.1 m/s)
Visibility: 6 or more miles (10+ km)
Ceiling: 4500 feet AGL
Clouds: scattered clouds at 3000 feet AGL
broken clouds at 4500 feet AGL
Weather: TSRA  (rain associated with thunderstorm(s))

METAR text: LIRQ 182220Z 14008KT 9999 TS SCT035CB SCT050 22/21 Q1007
Conditions at: LIRQ (FIRENZE/PERETOLA, IT) observed 2220 UTC 18 August 2022
Temperature: 22.0°C (72°F)
Dewpoint: 21.0°C (70°F) [RH = 94%]
Pressure (altimeter): 29.73 inches Hg (1007.0 mb)
Winds: from the SE (140 degrees) at 9 MPH (8 knots; 4.1 m/s)
Visibility: 6 or more miles (10+ km)
Ceiling: at least 12,000 feet AGL
Clouds: scattered clouds at 3500 feet AGL
scattered clouds at 5000 feet AGL
Weather: TS  (thunderstorm)

Forecast for: LIRQ (FIRENZE/PERETOLA, IT)
Text: TAF LIRQ 181700Z 1818/1918 VRB05KT 9999 FEW030
Forecast period: 1800 UTC 18 August 2022 to 1800 UTC 19 August 2022
Forecast type: FROM: standard forecast or significant change
Winds: variable direction winds at 6 MPH (5 knots; 2.6 m/s)
Visibility: 6 or more miles (10+ km)
Ceiling: at least 12,000 feet AGL
Clouds: few clouds at 3000 feet AGL
Weather: no significant weather forecast for this period
Text: TEMPO 1819/1906 4000 TSRA
Forecast period: 1900 UTC 18 August 2022 to 0600 UTC 19 August 2022
Forecast type: TEMPORARY: The following changes expected for less than half the time period
Visibility: 2.49 miles (4.01 km)
Ceiling: unknown
Clouds: missing
Weather: TSRA  (rain associated with thunderstorm(s))